Time;durP1;ratioP1;P1;durP2;ratioP2;P2;SDS_P1;SDS_P2;PMS_P1;PMS_P2;Temp;Humidity;BMP_temperature;BMP_pressure;BME280_temperature;BME280_humidity;BME280_pressure;Samples;Min_cycle;Max_cycle;Signal;HPM_P1;HPM_P2
2023/08/10 00:01:59;;;;;;;3.17;0.95;;;;;;;16.89;100.00;100899.31;4992676;28;20053;-95
2023/08/10 00:04:25;;;;;;;1.77;0.98;;;;;;;16.82;100.00;100898.13;4992622;28;20108;-96
2023/08/10 00:06:50;;;;;;;1.52;0.80;;;;;;;16.74;100.00;100892.66;4992779;28;20033;-96
2023/08/10 00:09:15;;;;;;;1.20;0.70;;;;;;;16.75;100.00;100883.88;4992716;28;20034;-96
2023/08/10 00:11:41;;;;;;;1.25;0.93;;;;;;;16.73;99.16;100889.22;4993259;28;20022;-95
2023/08/10 00:14:07;;;;;;;0.93;0.70;;;;;;;16.80;96.53;100885.22;4989327;28;20754;-96
2023/08/10 00:16:33;;;;;;;1.60;0.63;;;;;;;16.57;95.79;100892.13;4989300;28;20077;-96
2023/08/10 00:19:00;;;;;;;0.98;0.73;;;;;;;16.47;96.90;100886.78;4973048;28;20041;-96
2023/08/10 00:21:26;;;;;;;1.13;0.80;;;;;;;16.45;98.17;100887.84;4988942;28;20027;-96
2023/08/10 00:23:51;;;;;;;2.40;0.70;;;;;;;16.39;99.83;100888.31;4972939;28;20034;-95
2023/08/10 00:26:17;;;;;;;2.03;0.82;;;;;;;16.24;100.00;100885.06;4972816;28;20061;-96
2023/08/10 00:28:43;;;;;;;2.97;0.80;;;;;;;16.33;100.00;100883.56;4985734;28;20117;-96
2023/08/10 00:31:08;;;;;;;0.95;0.70;;;;;;;16.37;99.03;100880.59;4992180;28;20075;-96
2023/08/10 00:33:34;;;;;;;1.63;0.70;;;;;;;16.47;99.64;100875.53;4992064;28;20027;-96
2023/08/10 00:36:04;;;;;;;0.80;0.70;;;;;;;16.22;100.00;100881.75;4992133;28;20477;-96
2023/08/10 00:38:29;;;;;;;13.23;1.00;;;;;;;16.34;97.57;100878.25;4991980;28;20073;-96
2023/08/10 00:40:54;;;;;;;0.82;0.60;;;;;;;16.32;98.61;100876.69;4993123;28;20092;-96
2023/08/10 00:43:21;;;;;;;1.77;0.80;;;;;;;16.27;98.41;100884.84;4991044;28;20053;-96
2023/08/10 00:45:47;;;;;;;2.17;0.90;;;;;;;16.16;100.00;100885.63;4991899;28;20117;-96
2023/08/10 00:48:13;;;;;;;1.63;0.70;;;;;;;16.11;100.00;100874.72;4991253;28;20117;-96
2023/08/10 00:50:38;;;;;;;1.67;0.73;;;;;;;15.84;100.00;100878.41;4991872;28;20022;-96
2023/08/10 00:53:04;;;;;;;1.00;0.70;;;;;;;15.94;100.00;100875.13;4992833;28;20030;-95
2023/08/10 00:55:30;;;;;;;1.40;0.60;;;;;;;16.13;99.36;100879.81;4991930;28;20037;-96
2023/08/10 00:57:55;;;;;;;4.90;1.85;;;;;;;15.74;100.00;100871.38;4991123;28;20034;-96
2023/08/10 01:00:21;;;;;;;1.10;0.80;;;;;;;15.87;100.00;100876.53;4991771;28;20369;-95
2023/08/10 01:02:46;;;;;;;1.98;0.80;;;;;;;15.88;100.00;100879.03;4992830;28;20026;-96
2023/08/10 01:05:13;;;;;;;1.00;0.90;;;;;;;15.69;100.00;100889.06;4991911;28;20028;-96
2023/08/10 01:08:11;;;;;;;1.33;0.73;;;;;;;15.74;100.00;100884.41;4991959;28;20510;-96
2023/08/10 01:10:56;;;;;;;3.92;0.80;;;;;;;15.71;100.00;100877.63;4985557;28;20410;-96
2023/08/10 01:13:40;;;;;;;0.95;0.70;;;;;;;15.77;100.00;100876.34;4972180;28;20035;-96
2023/08/10 01:16:09;;;;;;;1.38;0.70;;;;;;;15.74;100.00;100874.81;4973577;28;20508;-95
2023/08/10 01:18:35;;;;;;;0.88;0.70;;;;;;;15.65;100.00;100874.59;4972324;28;20121;-96
2023/08/10 01:21:07;;;;;;;1.75;0.88;;;;;;;15.61;100.00;100868.81;4972416;28;20457;-95
2023/08/10 01:23:40;;;;;;;2.45;0.93;;;;;;;15.54;100.00;100870.19;4972021;28;20034;-96
2023/08/10 01:26:08;;;;;;;1.48;0.98;;;;;;;15.58;100.00;100866.41;4983731;28;20026;-96
2023/08/10 01:28:35;;;;;;;2.25;1.30;;;;;;;15.63;100.00;100866.94;4991493;28;20436;-96
2023/08/10 01:31:01;;;;;;;1.88;1.02;;;;;;;15.74;100.00;100868.78;4981033;28;20031;-96
2023/08/10 01:33:26;;;;;;;2.55;1.20;;;;;;;15.61;99.59;100858.41;4973317;28;20015;-96
2023/08/10 01:35:53;;;;;;;1.60;0.90;;;;;;;15.50;100.00;100856.53;4988311;28;20086;-96
2023/08/10 01:38:19;;;;;;;1.30;1.00;;;;;;;15.71;100.00;100850.78;4972376;28;20023;-96
2023/08/10 01:40:47;;;;;;;2.15;1.10;;;;;;;15.68;100.00;100846.59;4986435;28;20023;-96
2023/08/10 01:43:13;;;;;;;3.00;1.10;;;;;;;15.49;100.00;100851.47;4972098;28;20433;-96
2023/08/10 01:45:43;;;;;;;1.00;0.88;;;;;;;15.51;100.00;100849.56;4972093;28;20023;-96
2023/08/10 01:48:17;;;;;;;1.30;0.70;;;;;;;15.43;100.00;100852.72;4972278;28;20031;-95
2023/08/10 01:50:46;;;;;;;1.23;0.80;;;;;;;15.39;100.00;100846.91;4973197;28;20027;-96
2023/08/10 01:53:15;;;;;;;1.45;0.80;;;;;;;15.38;100.00;100850.44;4988043;28;20053;-96
2023/08/10 01:55:41;;;;;;;1.90;1.10;;;;;;;15.43;100.00;100847.53;5008328;28;20030;-96
2023/08/10 01:58:07;;;;;;;1.95;1.08;;;;;;;15.44;100.00;100835.38;5011376;28;20026;-95
2023/08/10 02:00:37;;;;;;;1.75;0.73;;;;;;;15.44;100.00;100837.97;5014500;28;20022;-96
2023/08/10 02:03:03;;;;;;;1.67;0.80;;;;;;;15.40;100.00;100835.56;5014876;28;20034;-96
2023/08/10 02:05:28;;;;;;;5.00;1.30;;;;;;;15.45;100.00;100834.41;5015209;28;20048;-96
2023/08/10 02:07:53;;;;;;;2.50;1.45;;;;;;;15.43;100.00;100825.88;5006794;28;20022;-95
2023/08/10 02:10:19;;;;;;;1.67;0.93;;;;;;;15.48;100.00;100824.59;4991059;28;20058;-96
2023/08/10 02:12:44;;;;;;;1.08;0.80;;;;;;;15.41;100.00;100824.22;5015202;28;20033;-96
2023/08/10 02:15:12;;;;;;;1.20;1.00;;;;;;;15.47;100.00;100822.13;5015218;28;20025;-96
2023/08/10 02:17:38;;;;;;;2.47;1.38;;;;;;;15.33;100.00;100816.13;5014926;28;20061;-96
2023/08/10 02:20:11;;;;;;;2.13;1.48;;;;;;;15.38;100.00;100810.59;5014869;28;20021;-96
2023/08/10 02:22:37;;;;;;;1.65;1.55;;;;;;;15.25;100.00;100817.63;5014845;28;20045;-96
2023/08/10 02:25:03;;;;;;;2.83;1.23;;;;;;;15.28;100.00;100827.81;4999692;28;20034;-95
2023/08/10 02:27:29;;;;;;;1.55;1.30;;;;;;;15.35;100.00;100813.44;4994745;28;20026;-96
2023/08/10 02:29:54;;;;;;;1.88;1.40;;;;;;;15.17;100.00;100810.38;4995357;28;20109;-96
2023/08/10 02:32:20;;;;;;;3.05;1.23;;;;;;;15.07;100.00;100810.19;4995130;28;20392;-95
2023/08/10 02:34:45;;;;;;;2.95;1.35;;;;;;;15.16;100.00;100812.13;4995692;28;20097;-94
2023/08/10 02:37:11;;;;;;;1.10;0.88;;;;;;;15.19;100.00;100816.28;4994977;28;20045;-96
2023/08/10 02:39:36;;;;;;;1.15;0.95;;;;;;;14.91;100.00;100813.03;4995244;28;20089;-96
2023/08/10 02:42:02;;;;;;;5.95;1.50;;;;;;;14.78;100.00;100809.63;4994091;28;20440;-96
2023/08/10 02:44:28;;;;;;;1.15;1.00;;;;;;;14.88;100.00;100818.44;4994575;28;20472;-95
2023/08/10 02:46:53;;;;;;;1.00;0.90;;;;;;;14.85;100.00;100817.81;4995136;28;20057;-96
2023/08/10 02:49:18;;;;;;;1.10;0.88;;;;;;;14.92;100.00;100817.31;4994888;28;20477;-96
2023/08/10 02:51:45;;;;;;;2.42;0.93;;;;;;;14.90;100.00;100821.78;4994585;28;20026;-96
2023/08/10 02:54:10;;;;;;;1.83;1.17;;;;;;;14.91;100.00;100815.63;4994268;28;20038;-96
2023/08/10 02:56:36;;;;;;;0.70;0.70;;;;;;;14.89;100.00;100812.28;4989640;28;20023;-96
2023/08/10 02:59:02;;;;;;;1.77;0.85;;;;;;;14.88;100.00;100810.66;4995527;28;20546;-96
2023/08/10 03:01:27;;;;;;;1.67;1.10;;;;;;;14.87;100.00;100814.16;4994624;28;20488;-96
2023/08/10 03:03:53;;;;;;;2.00;0.80;;;;;;;14.81;100.00;100809.41;4994456;28;20038;-96
2023/08/10 03:06:18;;;;;;;1.10;0.90;;;;;;;14.85;100.00;100812.63;4994569;28;20519;-95
2023/08/10 03:08:43;;;;;;;1.25;0.93;;;;;;;14.84;100.00;100808.38;4994573;28;20181;-96
2023/08/10 03:11:09;;;;;;;1.27;1.13;;;;;;;14.71;100.00;100800.59;4993770;28;20034;-96
2023/08/10 03:13:34;;;;;;;1.83;0.90;;;;;;;14.68;100.00;100798.19;4993446;28;20492;-96
2023/08/10 03:16:00;;;;;;;1.30;1.00;;;;;;;14.58;100.00;100795.38;4994414;28;20014;-96
2023/08/10 03:18:25;;;;;;;1.73;1.00;;;;;;;14.66;100.00;100800.91;4995601;28;20050;-96
2023/08/10 03:20:50;;;;;;;2.33;1.02;;;;;;;14.69;100.00;100800.69;4994472;28;20065;-96
2023/08/10 03:23:16;;;;;;;2.63;1.40;;;;;;;14.67;100.00;100801.72;4993963;28;20022;-96
2023/08/10 03:25:41;;;;;;;1.85;1.30;;;;;;;14.72;100.00;100800.47;4993388;28;20025;-95
2023/08/10 03:28:07;;;;;;;5.88;1.10;;;;;;;14.62;100.00;100809.00;4995118;28;20108;-96
2023/08/10 03:30:32;;;;;;;1.98;1.38;;;;;;;14.81;100.00;100813.78;4990731;28;20023;-95
2023/08/10 03:32:58;;;;;;;1.90;1.33;;;;;;;14.65;100.00;100801.00;4974137;28;20101;-95
2023/08/10 03:35:23;;;;;;;1.33;1.05;;;;;;;14.62;100.00;100793.44;4973975;28;20544;-96
2023/08/10 03:37:49;;;;;;;1.92;1.50;;;;;;;14.63;100.00;100784.69;4974201;28;20023;-96
2023/08/10 03:40:14;;;;;;;1.23;1.10;;;;;;;14.50;100.00;100795.88;4973915;28;20019;-95
2023/08/10 03:42:40;;;;;;;2.28;1.50;;;;;;;14.54;100.00;100802.56;4974054;28;20046;-96
2023/08/10 03:45:07;;;;;;;3.05;1.63;;;;;;;14.52;100.00;100801.81;4984814;28;20035;-95
2023/08/10 03:47:32;;;;;;;2.30;1.60;;;;;;;14.50;100.00;100795.88;4974048;28;20034;-96
2023/08/10 03:49:58;;;;;;;2.33;1.30;;;;;;;14.49;100.00;100796.84;4973733;28;20023;-96
2023/08/10 03:52:23;;;;;;;3.03;1.50;;;;;;;14.54;100.00;100791.34;4974037;28;20023;-96
2023/08/10 03:54:49;;;;;;;1.83;1.38;;;;;;;14.48;100.00;100787.38;4973823;28;20027;-96
2023/08/10 03:57:14;;;;;;;1.85;1.20;;;;;;;14.31;100.00;100795.47;4975153;28;20035;-96
2023/08/10 03:59:39;;;;;;;1.35;1.20;;;;;;;14.27;100.00;100792.25;4973450;28;20030;-96
2023/08/10 04:02:05;;;;;;;1.10;1.00;;;;;;;14.20;100.00;100798.78;4980175;28;20027;-96
2023/08/10 04:04:30;;;;;;;7.88;1.52;;;;;;;14.38;100.00;100796.72;4989490;28;20038;-96
2023/08/10 04:06:55;;;;;;;2.08;1.55;;;;;;;14.28;100.00;100798.28;4973412;28;20370;-96
2023/08/10 04:09:21;;;;;;;2.47;1.80;;;;;;;14.36;100.00;100798.59;4973608;28;20109;-95
2023/08/10 04:11:46;;;;;;;2.90;1.60;;;;;;;14.33;100.00;100799.63;4973325;28;20027;-96
2023/08/10 04:14:12;;;;;;;2.25;1.42;;;;;;;14.27;100.00;100796.63;4973976;28;20031;-96
2023/08/10 04:16:37;;;;;;;2.30;1.90;;;;;;;14.38;100.00;100795.91;4982024;28;20030;-96
2023/08/10 04:19:03;;;;;;;2.00;1.50;;;;;;;14.26;100.00;100798.38;4992229;28;20380;-94
2023/08/10 04:21:28;;;;;;;2.38;1.60;;;;;;;14.17;100.00;100803.34;4993157;28;20037;-94
2023/08/10 04:23:53;;;;;;;2.42;1.55;;;;;;;14.13;100.00;100808.75;4991840;28;20026;-95
2023/08/10 04:26:19;;;;;;;2.25;1.55;;;;;;;14.16;100.00;100804.28;4993168;28;20484;-94
2023/08/10 04:28:44;;;;;;;2.30;1.70;;;;;;;14.11;100.00;100800.22;4992006;28;20126;-94
2023/08/10 04:31:10;;;;;;;1.60;1.30;;;;;;;14.07;100.00;100809.19;4992172;28;20041;-94
2023/08/10 04:33:35;;;;;;;2.78;1.63;;;;;;;13.98;100.00;100812.38;4992804;28;20377;-95
2023/08/10 04:36:02;;;;;;;6.32;1.20;;;;;;;14.01;100.00;100812.16;4993041;28;20030;-94
2023/08/10 04:38:27;;;;;;;2.35;1.63;;;;;;;13.99;100.00;100816.63;4993050;28;20098;-94
2023/08/10 04:40:53;;;;;;;3.90;1.50;;;;;;;13.83;100.00;100829.78;4991876;28;20134;-95
2023/08/10 04:43:18;;;;;;;3.05;1.85;;;;;;;13.82;100.00;100820.31;4991828;28;20037;-95
2023/08/10 04:45:44;;;;;;;2.70;2.00;;;;;;;13.88;100.00;100819.09;4987754;28;20035;-95
2023/08/10 04:48:10;;;;;;;1.70;1.40;;;;;;;13.85;100.00;100814.09;4972341;28;20041;-94
2023/08/10 04:50:36;;;;;;;3.92;1.70;;;;;;;13.89;100.00;100825.94;4974141;28;20052;-95
2023/08/10 04:53:02;;;;;;;2.20;1.73;;;;;;;13.93;100.00;100827.41;4974273;28;20532;-96
2023/08/10 04:55:27;;;;;;;2.70;1.88;;;;;;;13.87;100.00;100830.38;4974734;28;20037;-95
2023/08/10 04:57:53;;;;;;;4.90;1.83;;;;;;;13.84;100.00;100828.00;4972375;28;20023;-94
2023/08/10 05:00:18;;;;;;;2.55;1.95;;;;;;;13.83;100.00;100827.19;4974255;28;20038;-94
2023/08/10 05:02:44;;;;;;;2.30;1.92;;;;;;;13.89;100.00;100831.13;4973034;28;20042;-94
2023/08/10 05:05:10;;;;;;;2.25;1.85;;;;;;;13.88;100.00;100839.84;4973444;28;20042;-94
2023/08/10 05:07:37;;;;;;;2.63;1.98;;;;;;;13.84;100.00;100843.56;4972205;28;20023;-94
2023/08/10 05:10:05;;;;;;;2.20;1.90;;;;;;;13.85;100.00;100834.84;4973349;28;20489;-94
2023/08/10 05:12:31;;;;;;;3.97;2.00;;;;;;;13.88;100.00;100830.31;4973503;28;20041;-94
2023/08/10 05:14:57;;;;;;;2.38;1.92;;;;;;;13.91;100.00;100831.88;4973418;28;21095;-94
2023/08/10 05:17:22;;;;;;;4.32;1.98;;;;;;;13.92;100.00;100825.72;4989322;28;20025;-96
2023/08/10 05:23:00;;;;;;;4.40;2.28;;;;;;;14.00;100.00;100820.88;5047569;23;20114;-96
2023/08/10 05:25:26;;;;;;;2.65;2.20;;;;;;;14.06;100.00;100804.06;5007923;28;20034;-96
2023/08/10 05:27:51;;;;;;;3.58;2.88;;;;;;;14.20;100.00;100787.59;4998223;28;20026;-95
2023/08/10 05:30:17;;;;;;;4.47;2.90;;;;;;;14.29;100.00;100793.00;4990567;28;20031;-96
2023/08/10 05:32:45;;;;;;;4.90;3.10;;;;;;;14.31;100.00;100783.34;4988509;28;20076;-94
2023/08/10 05:35:12;;;;;;;4.43;2.58;;;;;;;14.39;100.00;100781.97;4997254;28;20026;-96
2023/08/10 05:37:38;;;;;;;3.38;2.60;;;;;;;14.42;100.00;100784.38;4985520;28;20470;-96
2023/08/10 05:40:11;;;;;;;3.35;2.60;;;;;;;14.45;100.00;100782.38;4975582;28;20081;-95
2023/08/10 05:42:38;;;;;;;6.72;2.85;;;;;;;14.49;100.00;100780.44;4997712;28;20014;-95
2023/08/10 05:45:06;;;;;;;3.65;2.47;;;;;;;14.48;100.00;100789.97;4999274;28;20049;-96
2023/08/10 05:47:32;;;;;;;4.18;2.80;;;;;;;14.54;100.00;100797.38;4994725;28;20185;-95
2023/08/10 05:49:57;;;;;;;3.97;2.50;;;;;;;14.59;100.00;100789.28;4995865;28;20029;-96
2023/08/10 05:52:23;;;;;;;5.93;2.58;;;;;;;14.62;100.00;100790.84;4994802;28;20022;-95
2023/08/10 05:54:48;;;;;;;4.25;2.85;;;;;;;14.72;100.00;100784.06;4999582;28;20161;-96
2023/08/10 05:57:14;;;;;;;3.85;3.00;;;;;;;14.77;100.00;100797.56;4990506;28;20046;-95
2023/08/10 05:59:39;;;;;;;4.95;3.20;;;;;;;14.73;100.00;100809.13;4976634;28;20477;-96
2023/08/10 06:02:05;;;;;;;3.80;2.88;;;;;;;14.73;100.00;100816.91;4975035;28;20113;-95
2023/08/10 06:04:31;;;;;;;5.72;3.55;;;;;;;14.75;100.00;100810.66;4979626;28;20084;-95
2023/08/10 06:06:56;;;;;;;7.63;3.05;;;;;;;14.80;100.00;100810.31;4995564;28;20030;-96
2023/08/10 06:09:21;;;;;;;5.75;3.97;;;;;;;15.01;100.00;100812.38;4994436;28;20022;-95
2023/08/10 06:11:47;;;;;;;5.18;3.97;;;;;;;15.00;100.00;100808.97;4983994;28;20508;-96
2023/08/10 06:14:12;;;;;;;4.55;3.25;;;;;;;15.03;100.00;100803.53;4975391;28;20034;-96
2023/08/10 06:16:38;;;;;;;6.15;3.72;;;;;;;15.06;100.00;100802.50;4975072;28;20125;-95
2023/08/10 06:19:04;;;;;;;7.25;4.80;;;;;;;15.17;100.00;100805.19;4975974;28;20424;-95
2023/08/10 06:21:30;;;;;;;8.75;5.13;;;;;;;15.24;100.00;100792.56;4975731;28;20057;-96
2023/08/10 06:23:55;;;;;;;7.50;4.90;;;;;;;15.29;100.00;100799.09;4977962;28;20035;-96
2023/08/10 06:26:20;;;;;;;5.78;4.30;;;;;;;15.40;100.00;100798.31;4984972;28;20089;-96
2023/08/10 06:28:46;;;;;;;5.75;3.92;;;;;;;15.48;100.00;100796.00;4975211;28;20082;-95
2023/08/10 06:31:13;;;;;;;6.85;4.07;;;;;;;15.49;100.00;100799.44;4974842;28;20037;-96
2023/08/10 06:33:38;;;;;;;5.65;4.22;;;;;;;15.52;100.00;100789.63;4975098;28;20015;-95
2023/08/10 06:36:06;;;;;;;5.53;3.75;;;;;;;15.71;100.00;100791.75;4974818;28;20539;-95
2023/08/10 06:38:34;;;;;;;6.63;4.32;;;;;;;15.80;100.00;100772.00;4974753;28;20041;-95
2023/08/10 06:41:00;;;;;;;6.45;3.65;;;;;;;20.02;86.27;100778.97;4989338;28;20104;-96
2023/08/10 06:43:25;;;;;;;4.03;3.17;;;;;;;22.13;65.79;100798.13;4990556;28;20039;-96
2023/08/10 06:45:51;;;;;;;4.40;3.05;;;;;;;23.50;60.58;100796.19;4988043;28;20105;-96
2023/08/10 06:48:16;;;;;;;4.55;3.40;;;;;;;25.07;54.55;100794.88;4994008;28;20472;-96
2023/08/10 06:50:42;;;;;;;4.70;3.33;;;;;;;25.98;51.60;100801.16;4993803;28;20033;-95
2023/08/10 06:53:08;;;;;;;5.53;3.90;;;;;;;26.60;49.34;100791.25;4995032;28;20088;-96
2023/08/10 06:55:33;;;;;;;6.35;4.13;;;;;;;26.36;49.13;100789.69;4992168;28;20034;-96
2023/08/10 06:57:59;;;;;;;5.30;4.10;;;;;;;27.93;45.73;100782.00;4991781;28;20528;-96
2023/08/10 07:00:25;;;;;;;5.88;3.85;;;;;;;27.72;45.83;100775.69;4994615;28;20022;-96
2023/08/10 07:02:53;;;;;;;4.97;3.65;;;;;;;28.45;43.79;100778.03;4994860;28;20026;-96
2023/08/10 07:05:21;;;;;;;5.43;3.80;;;;;;;28.53;43.46;100766.41;4997589;28;20473;-96
2023/08/10 07:07:47;;;;;;;5.10;3.88;;;;;;;28.09;43.74;100768.44;4994659;28;20018;-96
2023/08/10 07:10:13;;;;;;;7.63;3.00;;;;;;;26.84;46.02;100756.50;4989784;28;20031;-94
2023/08/10 07:12:39;;;;;;;3.53;2.75;;;;;;;28.67;42.72;100752.16;4996244;28;20034;-96
2023/08/10 07:15:07;;;;;;;3.33;2.15;;;;;;;29.77;40.62;100760.69;4989243;28;20497;-96
2023/08/10 07:17:33;;;;;;;3.70;2.38;;;;;;;29.54;40.25;100769.09;4991726;28;20109;-95
2023/08/10 07:19:58;;;;;;;1.67;1.35;;;;;;;28.56;41.90;100777.47;4991669;28;20106;-95
2023/08/10 07:22:24;;;;;;;4.15;2.95;;;;;;;29.12;41.27;100778.28;4992810;28;20457;-95
2023/08/10 07:24:49;;;;;;;2.55;2.08;;;;;;;29.55;40.57;100783.22;4991515;28;20034;-96
2023/08/10 07:27:15;;;;;;;3.58;2.50;;;;;;;29.90;39.89;100778.53;4992837;28;20022;-96
2023/08/10 07:29:40;;;;;;;2.70;2.20;;;;;;;26.64;45.52;100766.88;4992370;28;20022;-95
2023/08/10 07:32:07;;;;;;;3.72;2.00;;;;;;;27.23;45.59;100762.44;4992778;28;20444;-96
2023/08/10 07:34:32;;;;;;;4.38;1.90;;;;;;;29.10;41.51;100772.34;4992006;28;20037;-96
2023/08/10 07:36:58;;;;;;;2.83;1.92;;;;;;;29.63;40.91;100777.69;4987125;28;20018;-95
2023/08/10 07:39:23;;;;;;;4.18;2.50;;;;;;;29.72;40.44;100784.44;4987280;28;20049;-96
2023/08/10 07:41:49;;;;;;;3.58;2.28;;;;;;;28.84;41.24;100792.47;4997414;28;20081;-96
2023/08/10 07:44:14;;;;;;;2.92;2.00;;;;;;;28.49;42.08;100808.47;4993726;28;20068;-96
2023/08/10 07:46:40;;;;;;;5.90;2.50;;;;;;;28.44;42.54;100818.84;4985911;28;20061;-96
2023/08/10 07:49:05;;;;;;;3.88;2.08;;;;;;;28.69;42.60;100803.25;4991932;28;20393;-96
2023/08/10 07:51:31;;;;;;;2.90;2.17;;;;;;;29.06;42.15;100792.34;4992130;28;20081;-96
2023/08/10 07:53:57;;;;;;;3.03;2.17;;;;;;;28.81;42.15;100808.81;4996563;28;20029;-95
2023/08/10 07:56:22;;;;;;;3.50;2.20;;;;;;;28.46;42.69;100816.84;4994089;28;20023;-96
2023/08/10 07:58:48;;;;;;;4.10;2.13;;;;;;;28.66;42.96;100816.13;4990169;28;20022;-96
2023/08/10 08:01:14;;;;;;;4.32;2.35;;;;;;;28.51;42.79;100801.16;4994352;28;20105;-96
2023/08/10 08:03:39;;;;;;;4.45;2.00;;;;;;;28.17;43.48;100816.03;4993749;28;20022;-96
2023/08/10 08:06:05;;;;;;;2.50;2.08;;;;;;;27.89;43.94;100812.56;5001569;28;20495;-96
2023/08/10 08:08:30;;;;;;;2.75;1.90;;;;;;;27.02;45.49;100832.91;4991500;28;20506;-95
2023/08/10 08:10:56;;;;;;;3.50;1.73;;;;;;;27.22;45.86;100833.16;4992787;28;20025;-96
2023/08/10 08:13:22;;;;;;;3.50;2.00;;;;;;;28.15;44.61;100828.69;4995127;28;20145;-96
2023/08/10 08:15:48;;;;;;;4.22;1.80;;;;;;;28.32;44.42;100823.06;4993289;28;20469;-96
2023/08/10 08:18:43;;;;;;;3.03;1.85;;;;;;;27.65;44.86;100822.53;4993950;28;20037;-96
2023/08/10 08:21:13;;;;;;;3.20;2.35;;;;;;;27.80;45.21;100816.34;4992241;28;20080;-96
2023/08/10 08:23:40;;;;;;;3.42;2.55;;;;;;;27.71;44.85;100802.41;5002074;28;20045;-96
2023/08/10 08:26:08;;;;;;;2.85;2.15;;;;;;;26.62;47.77;100805.13;4980868;28;20034;-96
2023/08/10 08:28:34;;;;;;;7.93;2.10;;;;;;;27.28;46.55;100805.91;4987162;28;20023;-96
2023/08/10 08:30:59;;;;;;;2.60;1.95;;;;;;;27.23;47.18;100805.63;4994372;28;20029;-96
2023/08/10 08:33:25;;;;;;;3.22;2.20;;;;;;;27.01;47.23;100811.91;4993683;28;20513;-96
2023/08/10 08:35:50;;;;;;;5.65;2.92;;;;;;;27.16;47.00;100807.38;4991617;28;20014;-96
2023/08/10 08:38:17;;;;;;;4.55;3.00;;;;;;;27.42;47.02;100808.69;4994200;28;20026;-96
2023/08/10 08:40:43;;;;;;;3.90;2.83;;;;;;;27.07;47.34;100797.91;5046002;23;20061;-96
2023/08/10 08:43:11;;;;;;;4.32;2.88;;;;;;;27.26;47.91;100797.34;4986668;28;20031;-96
2023/08/10 08:45:38;;;;;;;4.85;3.20;;;;;;;26.77;48.11;100795.31;4985128;28;20117;-96
2023/08/10 08:48:07;;;;;;;4.15;2.53;;;;;;;27.51;47.26;100795.13;4974863;28;20117;-95
2023/08/10 08:50:34;;;;;;;4.65;2.65;;;;;;;27.55;46.93;100790.22;4987905;28;20030;-96
2023/08/10 08:53:00;;;;;;;3.17;2.38;;;;;;;27.05;48.37;100786.69;4987546;28;20029;-96
2023/08/10 08:55:27;;;;;;;6.53;1.88;;;;;;;27.77;47.04;100787.56;4979507;28;20027;-96
2023/08/10 08:57:52;;;;;;;6.47;2.25;;;;;;;28.37;45.55;100791.44;4984797;28;20029;-95
2023/08/10 09:00:18;;;;;;;2.75;2.10;;;;;;;28.28;46.67;100784.66;4971982;28;20026;-96
2023/08/10 09:02:43;;;;;;;3.65;2.25;;;;;;;28.62;45.53;100772.38;4973099;28;20038;-95
2023/08/10 09:05:09;;;;;;;3.28;1.95;;;;;;;27.89;46.69;100780.72;4985667;28;20031;-96
2023/08/10 09:07:34;;;;;;;8.98;1.83;;;;;;;28.04;46.42;100778.78;4981638;28;20072;-96
2023/08/10 09:10:00;;;;;;;2.88;1.80;;;;;;;27.61;47.50;100770.91;4982454;28;20026;-96
2023/08/10 09:12:34;;;;;;;4.05;2.05;;;;;;;28.02;46.60;100785.31;4990807;28;20022;-95
2023/08/10 09:15:10;;;;;;;4.35;1.92;;;;;;;28.61;45.80;100768.91;4975700;28;20022;-95
2023/08/10 09:17:53;;;;;;;5.25;1.90;;;;;;;28.48;45.21;100782.97;4979023;28;20121;-94
2023/08/10 09:20:29;;;;;;;2.20;1.70;;;;;;;27.89;46.75;100775.44;4990779;28;20026;-96
2023/08/10 09:22:57;;;;;;;2.00;1.73;;;;;;;28.09;46.68;100778.22;4992499;28;20035;-95
2023/08/10 09:25:23;;;;;;;1.88;1.25;;;;;;;28.14;47.16;100779.28;4993021;28;20480;-96
2023/08/10 09:27:50;;;;;;;3.15;1.50;;;;;;;28.59;45.98;100784.22;4984762;28;20062;-95
2023/08/10 09:30:17;;;;;;;1.73;1.25;;;;;;;28.19;46.64;100786.66;4972110;28;20130;-95
2023/08/10 09:32:42;;;;;;;2.30;1.27;;;;;;;28.56;46.27;100777.47;4981078;28;20052;-95
2023/08/10 09:35:16;;;;;;;2.85;1.42;;;;;;;28.48;46.46;100782.13;4991696;28;20037;-96
2023/08/10 09:37:42;;;;;;;1.35;1.02;;;;;;;27.39;47.94;100775.44;4992723;28;20030;-95
2023/08/10 09:40:12;;;;;;;1.75;1.00;;;;;;;26.32;51.11;100768.06;4991818;28;20117;-95
2023/08/10 09:42:39;;;;;;;6.15;1.48;;;;;;;26.71;51.52;100772.25;4991520;28;20033;-95
2023/08/10 09:45:08;;;;;;;1.85;1.00;;;;;;;27.41;49.57;100776.06;4982150;28;20026;-95
2023/08/10 09:47:39;;;;;;;1.30;0.63;;;;;;;27.72;48.70;100786.28;4976464;28;20299;-95
2023/08/10 09:50:08;;;;;;;;;;;;;;;26.42;51.51;100779.19;4992298;28;20027;-95
2023/08/10 09:52:36;;;;;;;2.22;1.15;;;;;;;26.64;51.56;100760.75;4979765;28;19917;-95
2023/08/10 09:55:03;;;;;;;0.95;0.80;;;;;;;27.65;50.48;100769.50;4989557;28;20029;-95
2023/08/10 09:57:28;;;;;;;3.60;1.30;;;;;;;27.73;49.16;100766.72;4981289;28;20031;-96
2023/08/10 09:59:54;;;;;;;3.83;0.75;;;;;;;27.92;49.76;100759.97;4987993;28;20030;-96
2023/08/10 10:02:20;;;;;;;1.08;0.68;;;;;;;28.91;47.52;100763.28;4974568;28;20121;-95
2023/08/10 10:04:47;;;;;;;0.93;0.70;;;;;;;28.89;47.43;100757.34;4987768;28;20026;-96
2023/08/10 10:07:13;;;;;;;3.03;0.70;;;;;;;29.25;46.41;100762.34;4979202;28;20027;-95
2023/08/10 10:09:43;;;;;;;2.05;0.90;;;;;;;29.62;46.09;100765.41;4988537;28;20027;-96
2023/08/10 10:12:10;;;;;;;3.70;0.60;;;;;;;29.31;47.05;100763.34;4979607;28;20537;-96
2023/08/10 10:14:43;;;;;;;2.92;0.90;;;;;;;28.79;46.81;100771.00;4974584;28;20102;-96
2023/08/10 10:17:12;;;;;;;3.15;0.70;;;;;;;28.46;47.99;100758.44;4980923;28;20035;-96
2023/08/10 10:19:42;;;;;;;1.48;0.73;;;;;;;27.91;49.18;100760.97;4988133;28;20023;-95
2023/08/10 10:22:09;;;;;;;2.00;1.00;;;;;;;27.36;51.18;100754.63;4978867;28;20385;-96
2023/08/10 10:24:41;;;;;;;2.00;0.70;;;;;;;27.39;51.74;100756.06;4988300;28;20026;-96
2023/08/10 10:27:13;;;;;;;1.23;0.75;;;;;;;27.67;51.28;100756.88;4975370;28;20026;-95
2023/08/10 10:29:45;;;;;;;3.25;0.82;;;;;;;27.25;51.37;100750.63;4980293;28;20377;-95
2023/08/10 10:32:16;;;;;;;2.92;1.02;;;;;;;26.93;52.19;100748.44;4990849;28;20078;-96
2023/08/10 10:34:42;;;;;;;1.85;0.90;;;;;;;27.05;52.23;100750.41;4976055;28;20045;-94
2023/08/10 10:37:20;;;;;;;3.25;1.08;;;;;;;27.03;53.00;100743.66;4977719;28;20057;-96
2023/08/10 10:39:51;;;;;;;1.20;0.80;;;;;;;26.21;53.97;100742.91;4976423;28;20053;-96
2023/08/10 10:42:17;;;;;;;2.30;0.70;;;;;;;27.03;52.92;100744.47;4976674;28;20035;-95
2023/08/10 10:45:14;;;;;;;1.15;0.93;;;;;;;28.15;51.35;100738.44;4975074;28;20047;-96
2023/08/10 10:47:46;;;;;;;1.23;0.80;;;;;;;28.20;49.81;100745.00;4993258;28;20065;-94
2023/08/10 10:50:23;;;;;;;2.65;1.25;;;;;;;27.32;50.96;100740.91;4995780;28;20031;-96
2023/08/10 10:53:00;;;;;;;3.03;0.73;;;;;;;27.51;51.94;100743.94;4982554;28;20026;-95
2023/08/10 10:55:35;;;;;;;1.40;1.02;;;;;;;26.96;51.95;100737.47;4974074;28;20055;-95
2023/08/10 10:58:02;;;;;;;6.60;0.90;;;;;;;27.06;52.48;100740.63;4977845;28;20086;-96
2023/08/10 11:00:28;;;;;;;0.93;0.60;;;;;;;27.01;53.30;100732.44;4976159;28;20118;-95
2023/08/10 11:02:54;;;;;;;1.58;0.82;;;;;;;27.45;52.64;100739.38;4979759;28;20525;-95
2023/08/10 11:05:20;;;;;;;2.42;1.10;;;;;;;27.09;52.70;100732.28;4976082;28;20110;-95
2023/08/10 11:07:50;;;;;;;1.00;0.70;;;;;;;27.39;53.12;100727.72;4975920;28;20031;-96
2023/08/10 11:10:17;;;;;;;1.67;0.70;;;;;;;27.60;52.59;100733.97;4976086;28;20113;-94
2023/08/10 11:12:44;;;;;;;2.33;1.25;;;;;;;27.25;52.53;100723.31;4974762;28;20015;-96
2023/08/10 11:15:12;;;;;;;1.15;0.63;;;;;;;27.31;53.45;100726.03;4974765;28;20473;-96
2023/08/10 11:17:39;;;;;;;2.00;0.90;;;;;;;26.81;54.42;100725.09;4982898;28;20031;-96
2023/08/10 11:20:14;;;;;;;2.10;0.93;;;;;;;26.58;55.48;100721.78;4996491;28;20030;-96
2023/08/10 11:22:43;;;;;;;2.05;0.90;;;;;;;27.17;56.25;100724.22;4992588;28;20031;-95
2023/08/10 11:25:11;;;;;;;0.85;0.73;;;;;;;27.10;53.68;100712.75;4993557;28;20026;-96